sensor_id;sensor_type;location;lat;lon;timestamp;temperature;humidity
68276;DHT22;55106;51.438;-0.098;2022-09-23T00:00:14;14.62;91.32
68276;DHT22;55106;51.438;-0.098;2022-09-23T00:02:40;14.59;91.41
68276;DHT22;55106;51.438;-0.098;2022-09-23T00:05:07;14.59;91.30
68276;DHT22;55106;51.438;-0.098;2022-09-23T00:07:34;14.60;91.25
68276;DHT22;55106;51.438;-0.098;2022-09-23T00:10:01;14.63;91.46
68276;DHT22;55106;51.438;-0.098;2022-09-23T00:12:26;14.63;91.42
68276;DHT22;55106;51.438;-0.098;2022-09-23T00:14:52;14.62;91.28
68276;DHT22;55106;51.438;-0.098;2022-09-23T00:17:17;14.65;91.37
68276;DHT22;55106;51.438;-0.098;2022-09-23T00:19:42;14.66;91.26
68276;DHT22;55106;51.438;-0.098;2022-09-23T00:22:08;14.70;91.37
68276;DHT22;55106;51.438;-0.098;2022-09-23T00:24:33;14.73;91.34
68276;DHT22;55106;51.438;-0.098;2022-09-23T00:26:59;14.75;91.37
68276;DHT22;55106;51.438;-0.098;2022-09-23T00:29:24;14.75;91.31
68276;DHT22;55106;51.438;-0.098;2022-09-23T00:31:50;14.76;91.47
68276;DHT22;55106;51.438;-0.098;2022-09-23T00:34:16;14.76;91.64
68276;DHT22;55106;51.438;-0.098;2022-09-23T00:36:41;14.75;91.85
68276;DHT22;55106;51.438;-0.098;2022-09-23T00:39:06;14.79;92.06
68276;DHT22;55106;51.438;-0.098;2022-09-23T00:41:33;14.73;92.53
68276;DHT22;55106;51.438;-0.098;2022-09-23T00:44:00;14.70;92.63
68276;DHT22;55106;51.438;-0.098;2022-09-23T00:46:34;14.67;92.90
68276;DHT22;55106;51.438;-0.098;2022-09-23T00:49:25;14.66;93.02
68276;DHT22;55106;51.438;-0.098;2022-09-23T00:52:06;14.63;93.72
68276;DHT22;55106;51.438;-0.098;2022-09-23T00:54:36;14.60;93.91
68276;DHT22;55106;51.438;-0.098;2022-09-23T00:57:02;14.58;94.19
68276;DHT22;55106;51.438;-0.098;2022-09-23T00:59:31;14.55;94.16
68276;DHT22;55106;51.438;-0.098;2022-09-23T01:01:57;14.50;94.52
68276;DHT22;55106;51.438;-0.098;2022-09-23T01:04:25;14.49;94.65
68276;DHT22;55106;51.438;-0.098;2022-09-23T01:06:51;14.49;94.58
68276;DHT22;55106;51.438;-0.098;2022-09-23T01:09:17;14.49;94.61
68276;DHT22;55106;51.438;-0.098;2022-09-23T01:17:43;14.45;94.60
68276;DHT22;55106;51.438;-0.098;2022-09-23T01:26:22;14.42;94.47
68276;DHT22;55106;51.438;-0.098;2022-09-23T01:33:48;14.39;94.60
68276;DHT22;55106;51.438;-0.098;2022-09-23T01:44:39;14.38;94.79
68276;DHT22;55106;51.438;-0.098;2022-09-23T01:47:08;14.36;94.80
68276;DHT22;55106;51.438;-0.098;2022-09-23T01:49:55;14.32;94.78
68276;DHT22;55106;51.438;-0.098;2022-09-23T01:52:40;14.31;94.82
68276;DHT22;55106;51.438;-0.098;2022-09-23T01:55:29;14.25;94.91
68276;DHT22;55106;51.438;-0.098;2022-09-23T01:58:14;14.26;94.93
68276;DHT22;55106;51.438;-0.098;2022-09-23T02:00:48;14.26;94.94
68276;DHT22;55106;51.438;-0.098;2022-09-23T02:03:19;14.26;95.02
68276;DHT22;55106;51.438;-0.098;2022-09-23T02:05:51;14.28;95.15
68276;DHT22;55106;51.438;-0.098;2022-09-23T02:08:23;14.29;95.18
68276;DHT22;55106;51.438;-0.098;2022-09-23T02:11:06;14.32;95.10
68276;DHT22;55106;51.438;-0.098;2022-09-23T02:13:40;14.33;94.92
68276;DHT22;55106;51.438;-0.098;2022-09-23T02:16:38;14.35;94.92
68276;DHT22;55106;51.438;-0.098;2022-09-23T02:19:09;14.35;94.89
68276;DHT22;55106;51.438;-0.098;2022-09-23T02:21:43;14.32;94.90
68276;DHT22;55106;51.438;-0.098;2022-09-23T02:24:13;14.33;94.83
68276;DHT22;55106;51.438;-0.098;2022-09-23T02:35:26;14.36;94.73
68276;DHT22;55106;51.438;-0.098;2022-09-23T02:40:44;14.38;94.94
68276;DHT22;55106;51.438;-0.098;2022-09-23T02:44:31;14.35;94.92
68276;DHT22;55106;51.438;-0.098;2022-09-23T02:46:25;14.36;94.90
68276;DHT22;55106;51.438;-0.098;2022-09-23T02:48:54;14.39;94.72
68276;DHT22;55106;51.438;-0.098;2022-09-23T02:51:21;14.38;94.92
68276;DHT22;55106;51.438;-0.098;2022-09-23T02:53:50;14.42;94.92
68276;DHT22;55106;51.438;-0.098;2022-09-23T02:56:20;14.40;94.99
68276;DHT22;55106;51.438;-0.098;2022-09-23T02:58:50;14.38;94.92
68276;DHT22;55106;51.438;-0.098;2022-09-23T03:07:00;14.38;95.15
68276;DHT22;55106;51.438;-0.098;2022-09-23T03:09:52;14.38;95.11
68276;DHT22;55106;51.438;-0.098;2022-09-23T03:15:28;14.42;95.33
68276;DHT22;55106;51.438;-0.098;2022-09-23T03:18:20;14.40;95.29
68276;DHT22;55106;51.438;-0.098;2022-09-23T03:20:50;14.38;95.46
68276;DHT22;55106;51.438;-0.098;2022-09-23T03:23:22;14.38;95.42
68276;DHT22;55106;51.438;-0.098;2022-09-23T03:25:52;14.35;95.53
68276;DHT22;55106;51.438;-0.098;2022-09-23T03:28:20;14.35;95.56
68276;DHT22;55106;51.438;-0.098;2022-09-23T03:30:51;14.31;95.57
68276;DHT22;55106;51.438;-0.098;2022-09-23T03:33:21;14.33;95.76
68276;DHT22;55106;51.438;-0.098;2022-09-23T03:36:05;14.28;95.83
68276;DHT22;55106;51.438;-0.098;2022-09-23T03:39:01;14.29;95.92
68276;DHT22;55106;51.438;-0.098;2022-09-23T03:41:41;14.28;95.85
68276;DHT22;55106;51.438;-0.098;2022-09-23T03:44:09;14.25;95.97
68276;DHT22;55106;51.438;-0.098;2022-09-23T03:46:36;14.28;96.01
68276;DHT22;55106;51.438;-0.098;2022-09-23T03:49:26;14.26;96.06
68276;DHT22;55106;51.438;-0.098;2022-09-23T03:51:52;14.28;96.11
68276;DHT22;55106;51.438;-0.098;2022-09-23T03:54:18;14.25;96.09
68276;DHT22;55106;51.438;-0.098;2022-09-23T03:56:44;14.26;96.16
68276;DHT22;55106;51.438;-0.098;2022-09-23T03:59:12;14.26;96.02
68276;DHT22;55106;51.438;-0.098;2022-09-23T04:01:39;14.25;96.17
68276;DHT22;55106;51.438;-0.098;2022-09-23T04:04:07;14.31;96.03
68276;DHT22;55106;51.438;-0.098;2022-09-23T04:06:33;14.28;96.16
68276;DHT22;55106;51.438;-0.098;2022-09-23T04:08:58;14.28;96.02
68276;DHT22;55106;51.438;-0.098;2022-09-23T04:11:26;14.28;96.14
68276;DHT22;55106;51.438;-0.098;2022-09-23T04:13:51;14.28;96.24
68276;DHT22;55106;51.438;-0.098;2022-09-23T04:16:17;14.29;96.18
68276;DHT22;55106;51.438;-0.098;2022-09-23T04:18:42;14.31;96.13
68276;DHT22;55106;51.438;-0.098;2022-09-23T04:21:07;14.31;95.99
68276;DHT22;55106;51.438;-0.098;2022-09-23T04:23:33;14.32;96.06
68276;DHT22;55106;51.438;-0.098;2022-09-23T04:25:58;14.31;96.17
68276;DHT22;55106;51.438;-0.098;2022-09-23T04:28:23;14.32;96.08
68276;DHT22;55106;51.438;-0.098;2022-09-23T04:30:50;14.33;96.08
68276;DHT22;55106;51.438;-0.098;2022-09-23T04:33:16;14.36;96.11
68276;DHT22;55106;51.438;-0.098;2022-09-23T04:35:41;14.40;96.16
68276;DHT22;55106;51.438;-0.098;2022-09-23T04:38:10;14.43;96.05
68276;DHT22;55106;51.438;-0.098;2022-09-23T04:40:37;14.48;95.94
68276;DHT22;55106;51.438;-0.098;2022-09-23T04:43:02;14.50;95.97
68276;DHT22;55106;51.438;-0.098;2022-09-23T04:45:27;14.55;95.97
68276;DHT22;55106;51.438;-0.098;2022-09-23T04:47:54;14.58;95.73
68276;DHT22;55106;51.438;-0.098;2022-09-23T04:50:23;14.62;95.62
68276;DHT22;55106;51.438;-0.098;2022-09-23T04:52:49;14.65;95.47
68276;DHT22;55106;51.438;-0.098;2022-09-23T04:55:15;14.66;95.34
68276;DHT22;55106;51.438;-0.098;2022-09-23T04:57:40;14.66;95.42
68276;DHT22;55106;51.438;-0.098;2022-09-23T05:00:06;14.69;95.26
68276;DHT22;55106;51.438;-0.098;2022-09-23T05:02:32;14.67;95.11
68276;DHT22;55106;51.438;-0.098;2022-09-23T05:04:59;14.67;95.07
68276;DHT22;55106;51.438;-0.098;2022-09-23T05:07:25;14.66;95.02
68276;DHT22;55106;51.438;-0.098;2022-09-23T05:09:50;14.65;95.00
68276;DHT22;55106;51.438;-0.098;2022-09-23T05:12:17;14.66;94.95
68276;DHT22;55106;51.438;-0.098;2022-09-23T05:14:43;14.65;95.03
68276;DHT22;55106;51.438;-0.098;2022-09-23T05:17:08;14.63;94.97
68276;DHT22;55106;51.438;-0.098;2022-09-23T05:19:34;14.63;95.05
68276;DHT22;55106;51.438;-0.098;2022-09-23T05:21:59;14.66;95.13
68276;DHT22;55106;51.438;-0.098;2022-09-23T05:24:24;14.67;95.38
68276;DHT22;55106;51.438;-0.098;2022-09-23T05:26:50;14.66;95.80
68276;DHT22;55106;51.438;-0.098;2022-09-23T05:29:16;14.63;96.24
68276;DHT22;55106;51.438;-0.098;2022-09-23T05:31:41;14.66;96.43
68276;DHT22;55106;51.438;-0.098;2022-09-23T05:34:07;14.60;96.68
68276;DHT22;55106;51.438;-0.098;2022-09-23T05:36:34;14.59;96.75
68276;DHT22;55106;51.438;-0.098;2022-09-23T05:39:00;14.56;96.76
68276;DHT22;55106;51.438;-0.098;2022-09-23T05:41:26;14.53;96.84
68276;DHT22;55106;51.438;-0.098;2022-09-23T05:43:53;14.53;96.91
68276;DHT22;55106;51.438;-0.098;2022-09-23T05:46:21;14.50;97.03
68276;DHT22;55106;51.438;-0.098;2022-09-23T05:48:50;14.52;97.09
68276;DHT22;55106;51.438;-0.098;2022-09-23T05:51:18;14.50;97.03
68276;DHT22;55106;51.438;-0.098;2022-09-23T05:53:44;14.52;97.13
68276;DHT22;55106;51.438;-0.098;2022-09-23T05:56:15;14.52;97.24
68276;DHT22;55106;51.438;-0.098;2022-09-23T05:58:42;14.52;97.36
68276;DHT22;55106;51.438;-0.098;2022-09-23T06:01:09;14.52;97.22
68276;DHT22;55106;51.438;-0.098;2022-09-23T06:03:34;14.52;97.24
68276;DHT22;55106;51.438;-0.098;2022-09-23T06:06:00;14.55;97.22
68276;DHT22;55106;51.438;-0.098;2022-09-23T06:08:25;14.58;97.28
68276;DHT22;55106;51.438;-0.098;2022-09-23T06:10:51;14.58;97.32
68276;DHT22;55106;51.438;-0.098;2022-09-23T06:13:16;14.59;97.24
68276;DHT22;55106;51.438;-0.098;2022-09-23T06:15:42;14.60;97.32
68276;DHT22;55106;51.438;-0.098;2022-09-23T06:18:09;14.62;97.35
68276;DHT22;55106;51.438;-0.098;2022-09-23T06:20:34;14.62;97.49
68276;DHT22;55106;51.438;-0.098;2022-09-23T06:23:07;14.62;97.41
68276;DHT22;55106;51.438;-0.098;2022-09-23T06:25:34;14.66;97.48
68276;DHT22;55106;51.438;-0.098;2022-09-23T06:28:00;14.67;97.51
68276;DHT22;55106;51.438;-0.098;2022-09-23T06:30:26;14.70;97.41
68276;DHT22;55106;51.438;-0.098;2022-09-23T06:32:54;14.72;97.50
68276;DHT22;55106;51.438;-0.098;2022-09-23T06:35:21;14.73;97.45
68276;DHT22;55106;51.438;-0.098;2022-09-23T06:37:47;14.77;97.54
68276;DHT22;55106;51.438;-0.098;2022-09-23T06:40:14;14.80;97.49
68276;DHT22;55106;51.438;-0.098;2022-09-23T06:42:40;14.80;97.58
68276;DHT22;55106;51.438;-0.098;2022-09-23T06:45:06;14.83;97.63
68276;DHT22;55106;51.438;-0.098;2022-09-23T06:47:31;14.84;97.63
68276;DHT22;55106;51.438;-0.098;2022-09-23T06:49:57;14.90;97.66
68276;DHT22;55106;51.438;-0.098;2022-09-23T06:52:23;14.91;97.58
68276;DHT22;55106;51.438;-0.098;2022-09-23T06:54:48;14.94;97.60
68276;DHT22;55106;51.438;-0.098;2022-09-23T06:57:14;14.98;97.57
68276;DHT22;55106;51.438;-0.098;2022-09-23T06:59:40;15.00;97.57
68276;DHT22;55106;51.438;-0.098;2022-09-23T07:02:07;15.03;97.57
68276;DHT22;55106;51.438;-0.098;2022-09-23T07:04:32;15.04;97.60
68276;DHT22;55106;51.438;-0.098;2022-09-23T07:06:58;15.07;97.63
68276;DHT22;55106;51.438;-0.098;2022-09-23T07:09:23;15.10;97.62
68276;DHT22;55106;51.438;-0.098;2022-09-23T07:11:51;15.15;97.60
68276;DHT22;55106;51.438;-0.098;2022-09-23T07:14:18;15.18;97.57
68276;DHT22;55106;51.438;-0.098;2022-09-23T07:16:43;15.28;97.60
68276;DHT22;55106;51.438;-0.098;2022-09-23T07:19:08;15.30;97.55
68276;DHT22;55106;51.438;-0.098;2022-09-23T07:21:34;15.28;97.46
68276;DHT22;55106;51.438;-0.098;2022-09-23T07:24:01;15.31;97.51
68276;DHT22;55106;51.438;-0.098;2022-09-23T07:26:26;15.36;97.48
68276;DHT22;55106;51.438;-0.098;2022-09-23T07:28:54;15.32;97.47
68276;DHT22;55106;51.438;-0.098;2022-09-23T07:31:21;15.31;97.55
68276;DHT22;55106;51.438;-0.098;2022-09-23T07:33:46;15.32;97.49
68276;DHT22;55106;51.438;-0.098;2022-09-23T07:36:16;15.34;97.48
68276;DHT22;55106;51.438;-0.098;2022-09-23T07:38:43;15.28;97.37
68276;DHT22;55106;51.438;-0.098;2022-09-23T07:41:10;15.27;97.48
68276;DHT22;55106;51.438;-0.098;2022-09-23T07:43:36;15.28;97.51
68276;DHT22;55106;51.438;-0.098;2022-09-23T07:46:07;15.28;97.53
68276;DHT22;55106;51.438;-0.098;2022-09-23T07:48:34;15.31;97.55
68276;DHT22;55106;51.438;-0.098;2022-09-23T07:53:33;15.30;97.54
68276;DHT22;55106;51.438;-0.098;2022-09-23T07:55:58;15.34;97.52
68276;DHT22;55106;51.438;-0.098;2022-09-23T07:58:24;15.38;97.50
68276;DHT22;55106;51.438;-0.098;2022-09-23T08:00:50;15.39;97.46
68276;DHT22;55106;51.438;-0.098;2022-09-23T08:03:18;15.41;97.46
68276;DHT22;55106;51.438;-0.098;2022-09-23T08:05:43;15.39;97.48
68276;DHT22;55106;51.438;-0.098;2022-09-23T08:08:11;15.41;97.53
68276;DHT22;55106;51.438;-0.098;2022-09-23T08:10:38;15.39;97.49
68276;DHT22;55106;51.438;-0.098;2022-09-23T08:13:04;15.45;97.42
68276;DHT22;55106;51.438;-0.098;2022-09-23T08:15:29;15.38;97.27
68276;DHT22;55106;51.438;-0.098;2022-09-23T08:17:58;15.41;97.32
68276;DHT22;55106;51.438;-0.098;2022-09-23T08:20:24;15.41;97.33
68276;DHT22;55106;51.438;-0.098;2022-09-23T08:23:10;15.54;97.29
68276;DHT22;55106;51.438;-0.098;2022-09-23T08:25:37;15.62;97.21
68276;DHT22;55106;51.438;-0.098;2022-09-23T08:28:03;15.66;97.25
68276;DHT22;55106;51.438;-0.098;2022-09-23T08:30:28;15.72;97.12
68276;DHT22;55106;51.438;-0.098;2022-09-23T08:32:54;15.67;97.14
68276;DHT22;55106;51.438;-0.098;2022-09-23T08:35:19;15.75;97.11
68276;DHT22;55106;51.438;-0.098;2022-09-23T08:37:44;15.76;97.04
68276;DHT22;55106;51.438;-0.098;2022-09-23T08:40:10;15.83;96.96
68276;DHT22;55106;51.438;-0.098;2022-09-23T08:42:38;15.93;97.00
68276;DHT22;55106;51.438;-0.098;2022-09-23T08:45:06;15.93;96.80
68276;DHT22;55106;51.438;-0.098;2022-09-23T08:48:05;15.81;96.48
68276;DHT22;55106;51.438;-0.098;2022-09-23T08:53:21;15.92;96.71
68276;DHT22;55106;51.438;-0.098;2022-09-23T08:55:48;16.04;96.57
68276;DHT22;55106;51.438;-0.098;2022-09-23T09:01:06;15.81;96.24
68276;DHT22;55106;51.438;-0.098;2022-09-23T09:04:02;15.75;96.57
68276;DHT22;55106;51.438;-0.098;2022-09-23T09:09:29;15.56;96.35
68276;DHT22;55106;51.438;-0.098;2022-09-23T09:14:40;15.42;95.57
68276;DHT22;55106;51.438;-0.098;2022-09-23T09:27:48;15.38;95.09
68276;DHT22;55106;51.438;-0.098;2022-09-23T09:30:15;15.44;94.94
68276;DHT22;55106;51.438;-0.098;2022-09-23T09:35:26;15.41;94.99
68276;DHT22;55106;51.438;-0.098;2022-09-23T09:37:57;15.39;94.88
68276;DHT22;55106;51.438;-0.098;2022-09-23T09:40:23;15.41;95.11
68276;DHT22;55106;51.438;-0.098;2022-09-23T09:42:49;15.41;95.29
68276;DHT22;55106;51.438;-0.098;2022-09-23T09:45:38;15.45;95.05
68276;DHT22;55106;51.438;-0.098;2022-09-23T09:48:20;15.45;94.56
68276;DHT22;55106;51.438;-0.098;2022-09-23T09:50:52;15.46;95.29
68276;DHT22;55106;51.438;-0.098;2022-09-23T09:53:25;15.46;95.70
68276;DHT22;55106;51.438;-0.098;2022-09-23T09:56:03;15.48;95.41
68276;DHT22;55106;51.438;-0.098;2022-09-23T10:01:41;15.56;95.07
68276;DHT22;55106;51.438;-0.098;2022-09-23T10:04:28;15.62;95.03
68276;DHT22;55106;51.438;-0.098;2022-09-23T10:07:06;15.70;95.21
68276;DHT22;55106;51.438;-0.098;2022-09-23T10:09:35;15.78;94.43
68276;DHT22;55106;51.438;-0.098;2022-09-23T10:12:22;15.86;94.83
68276;DHT22;55106;51.438;-0.098;2022-09-23T10:14:51;15.90;93.47
68276;DHT22;55106;51.438;-0.098;2022-09-23T10:17:31;15.94;92.28
68276;DHT22;55106;51.438;-0.098;2022-09-23T10:20:07;16.14;91.77
68276;DHT22;55106;51.438;-0.098;2022-09-23T10:22:36;16.25;91.77
68276;DHT22;55106;51.438;-0.098;2022-09-23T10:25:13;16.45;91.00
68276;DHT22;55106;51.438;-0.098;2022-09-23T10:27:40;16.64;91.45
68276;DHT22;55106;51.438;-0.098;2022-09-23T10:30:26;16.62;89.86
68276;DHT22;55106;51.438;-0.098;2022-09-23T10:32:53;16.64;89.30
68276;DHT22;55106;51.438;-0.098;2022-09-23T10:35:22;16.73;89.26
68276;DHT22;55106;51.438;-0.098;2022-09-23T10:37:58;16.72;88.65
68276;DHT22;55106;51.438;-0.098;2022-09-23T10:40:37;16.80;87.82
68276;DHT22;55106;51.438;-0.098;2022-09-23T10:43:59;16.78;88.15
68276;DHT22;55106;51.438;-0.098;2022-09-23T10:47:15;16.78;86.97
68276;DHT22;55106;51.438;-0.098;2022-09-23T10:53:37;16.82;87.56
68276;DHT22;55106;51.438;-0.098;2022-09-23T11:07:28;16.95;85.23
68276;DHT22;55106;51.438;-0.098;2022-09-23T11:12:41;17.03;83.16
68276;DHT22;55106;51.438;-0.098;2022-09-23T11:18:09;17.19;84.42
68276;DHT22;55106;51.438;-0.098;2022-09-23T11:20:59;17.23;82.63
68276;DHT22;55106;51.438;-0.098;2022-09-23T11:24:01;17.09;80.85
68276;DHT22;55106;51.438;-0.098;2022-09-23T11:32:18;17.47;79.62
68276;DHT22;55106;51.438;-0.098;2022-09-23T11:37:23;17.61;78.77
68276;DHT22;55106;51.438;-0.098;2022-09-23T11:40:04;17.78;80.32
68276;DHT22;55106;51.438;-0.098;2022-09-23T11:42:39;18.10;77.84
68276;DHT22;55106;51.438;-0.098;2022-09-23T11:45:21;18.05;76.90
68276;DHT22;55106;51.438;-0.098;2022-09-23T11:47:56;17.86;76.67
68276;DHT22;55106;51.438;-0.098;2022-09-23T11:50:31;17.60;76.80
68276;DHT22;55106;51.438;-0.098;2022-09-23T11:53:21;17.61;77.58
68276;DHT22;55106;51.438;-0.098;2022-09-23T11:55:58;17.68;77.91
68276;DHT22;55106;51.438;-0.098;2022-09-23T11:58:27;17.77;76.23
68276;DHT22;55106;51.438;-0.098;2022-09-23T12:00:59;17.89;76.06
68276;DHT22;55106;51.438;-0.098;2022-09-23T12:06:05;18.23;75.50
68276;DHT22;55106;51.438;-0.098;2022-09-23T12:08:36;18.39;74.96
68276;DHT22;55106;51.438;-0.098;2022-09-23T12:16:37;17.94;76.81
68276;DHT22;55106;51.438;-0.098;2022-09-23T12:28:04;17.55;78.43
68276;DHT22;55106;51.438;-0.098;2022-09-23T12:30:33;17.54;79.56
68276;DHT22;55106;51.438;-0.098;2022-09-23T12:35:47;17.60;78.07
68276;DHT22;55106;51.438;-0.098;2022-09-23T12:40:58;18.13;77.75
68276;DHT22;55106;51.438;-0.098;2022-09-23T12:43:30;18.41;75.82
68276;DHT22;55106;51.438;-0.098;2022-09-23T12:46:24;18.72;76.26
68276;DHT22;55106;51.438;-0.098;2022-09-23T12:51:34;18.88;74.85
68276;DHT22;55106;51.438;-0.098;2022-09-23T13:01:40;18.44;74.15
68276;DHT22;55106;51.438;-0.098;2022-09-23T13:07:27;18.60;73.21
68276;DHT22;55106;51.438;-0.098;2022-09-23T13:10:05;18.65;73.35
68276;DHT22;55106;51.438;-0.098;2022-09-23T13:12:34;18.77;73.68
68276;DHT22;55106;51.438;-0.098;2022-09-23T13:15:16;18.53;73.94
68276;DHT22;55106;51.438;-0.098;2022-09-23T13:17:42;18.40;74.64
68276;DHT22;55106;51.438;-0.098;2022-09-23T13:25:30;18.01;74.44
68276;DHT22;55106;51.438;-0.098;2022-09-23T13:28:00;17.78;75.17
68276;DHT22;55106;51.438;-0.098;2022-09-23T13:30:26;17.63;75.53
68276;DHT22;55106;51.438;-0.098;2022-09-23T13:33:08;17.53;75.16
68276;DHT22;55106;51.438;-0.098;2022-09-23T13:35:36;17.44;73.93
68276;DHT22;55106;51.438;-0.098;2022-09-23T13:38:22;17.53;73.63
68276;DHT22;55106;51.438;-0.098;2022-09-23T13:40:57;17.63;73.50
68276;DHT22;55106;51.438;-0.098;2022-09-23T13:43:29;17.94;72.97
68276;DHT22;55106;51.438;-0.098;2022-09-23T13:45:56;18.05;72.82
68276;DHT22;55106;51.438;-0.098;2022-09-23T13:48:24;18.12;70.92
68276;DHT22;55106;51.438;-0.098;2022-09-23T13:50:51;18.23;70.98
68276;DHT22;55106;51.438;-0.098;2022-09-23T13:53:30;18.33;71.35
68276;DHT22;55106;51.438;-0.098;2022-09-23T13:56:27;18.32;71.51
68276;DHT22;55106;51.438;-0.098;2022-09-23T13:58:53;18.30;71.23
68276;DHT22;55106;51.438;-0.098;2022-09-23T14:01:31;18.33;71.61
68276;DHT22;55106;51.438;-0.098;2022-09-23T14:03:58;18.23;71.14
68276;DHT22;55106;51.438;-0.098;2022-09-23T14:06:24;18.34;71.45
68276;DHT22;55106;51.438;-0.098;2022-09-23T14:08:51;18.33;71.03
68276;DHT22;55106;51.438;-0.098;2022-09-23T14:11:20;18.28;71.17
68276;DHT22;55106;51.438;-0.098;2022-09-23T14:13:48;18.22;71.77
68276;DHT22;55106;51.438;-0.098;2022-09-23T14:16:15;18.26;71.57
68276;DHT22;55106;51.438;-0.098;2022-09-23T14:18:44;18.41;72.90
68276;DHT22;55106;51.438;-0.098;2022-09-23T14:21:38;18.57;70.98
68276;DHT22;55106;51.438;-0.098;2022-09-23T14:24:33;18.75;71.32
68276;DHT22;55106;51.438;-0.098;2022-09-23T14:29:36;18.89;70.98
68276;DHT22;55106;51.438;-0.098;2022-09-23T14:32:34;18.85;69.70
68276;DHT22;55106;51.438;-0.098;2022-09-23T14:40:27;19.08;69.25
68276;DHT22;55106;51.438;-0.098;2022-09-23T14:43:15;19.19;68.55
68276;DHT22;55106;51.438;-0.098;2022-09-23T14:45:44;19.04;69.00
68276;DHT22;55106;51.438;-0.098;2022-09-23T14:48:18;18.99;69.32
68276;DHT22;55106;51.438;-0.098;2022-09-23T14:50:48;19.05;70.26
68276;DHT22;55106;51.438;-0.098;2022-09-23T14:55:54;19.09;70.08
68276;DHT22;55106;51.438;-0.098;2022-09-23T15:03:59;18.78;70.38
68276;DHT22;55106;51.438;-0.098;2022-09-23T15:06:26;18.72;72.50
68276;DHT22;55106;51.438;-0.098;2022-09-23T15:08:52;18.72;72.26
68276;DHT22;55106;51.438;-0.098;2022-09-23T15:11:20;18.64;72.32
68276;DHT22;55106;51.438;-0.098;2022-09-23T15:13:48;18.56;72.22
68276;DHT22;55106;51.438;-0.098;2022-09-23T15:16:15;18.46;72.60
68276;DHT22;55106;51.438;-0.098;2022-09-23T15:18:44;18.26;72.68
68276;DHT22;55106;51.438;-0.098;2022-09-23T15:21:15;18.12;72.85
68276;DHT22;55106;51.438;-0.098;2022-09-23T15:23:50;18.02;73.55
68276;DHT22;55106;51.438;-0.098;2022-09-23T15:26:20;17.94;74.01
68276;DHT22;55106;51.438;-0.098;2022-09-23T15:28:46;18.03;74.13
68276;DHT22;55106;51.438;-0.098;2022-09-23T15:31:17;18.17;73.01
68276;DHT22;55106;51.438;-0.098;2022-09-23T15:33:44;18.17;73.02
68276;DHT22;55106;51.438;-0.098;2022-09-23T15:36:19;18.43;73.00
68276;DHT22;55106;51.438;-0.098;2022-09-23T15:38:45;18.59;72.25
68276;DHT22;55106;51.438;-0.098;2022-09-23T15:41:10;18.68;71.17
68276;DHT22;55106;51.438;-0.098;2022-09-23T15:43:37;18.75;70.42
68276;DHT22;55106;51.438;-0.098;2022-09-23T15:46:05;18.72;70.39
68276;DHT22;55106;51.438;-0.098;2022-09-23T15:48:38;18.61;70.75
68276;DHT22;55106;51.438;-0.098;2022-09-23T15:51:06;18.54;71.10
68276;DHT22;55106;51.438;-0.098;2022-09-23T15:53:33;18.39;71.50
68276;DHT22;55106;51.438;-0.098;2022-09-23T15:55:58;18.34;72.07
68276;DHT22;55106;51.438;-0.098;2022-09-23T15:58:25;18.34;72.34
68276;DHT22;55106;51.438;-0.098;2022-09-23T16:00:52;18.30;71.98
68276;DHT22;55106;51.438;-0.098;2022-09-23T16:03:18;18.28;72.51
68276;DHT22;55106;51.438;-0.098;2022-09-23T16:05:47;18.28;72.33
68276;DHT22;55106;51.438;-0.098;2022-09-23T16:08:13;18.40;72.07
68276;DHT22;55106;51.438;-0.098;2022-09-23T16:10:39;18.49;71.62
68276;DHT22;55106;51.438;-0.098;2022-09-23T16:13:14;18.50;71.06
68276;DHT22;55106;51.438;-0.098;2022-09-23T16:15:40;18.53;71.23
68276;DHT22;55106;51.438;-0.098;2022-09-23T16:18:07;18.51;71.94
68276;DHT22;55106;51.438;-0.098;2022-09-23T16:20:41;18.47;73.08
68276;DHT22;55106;51.438;-0.098;2022-09-23T16:23:26;18.29;73.82
68276;DHT22;55106;51.438;-0.098;2022-09-23T16:28:40;18.03;74.14
68276;DHT22;55106;51.438;-0.098;2022-09-23T16:31:06;17.88;74.47
68276;DHT22;55106;51.438;-0.098;2022-09-23T16:33:31;17.78;74.84
68276;DHT22;55106;51.438;-0.098;2022-09-23T16:35:57;17.74;75.45
68276;DHT22;55106;51.438;-0.098;2022-09-23T16:38:25;17.65;75.84
68276;DHT22;55106;51.438;-0.098;2022-09-23T16:40:50;17.65;76.10
68276;DHT22;55106;51.438;-0.098;2022-09-23T16:43:16;17.63;76.46
68276;DHT22;55106;51.438;-0.098;2022-09-23T16:45:41;17.61;76.42
68276;DHT22;55106;51.438;-0.098;2022-09-23T16:48:07;17.57;76.99
68276;DHT22;55106;51.438;-0.098;2022-09-23T16:50:35;17.57;76.73
68276;DHT22;55106;51.438;-0.098;2022-09-23T16:53:00;17.54;76.95
68276;DHT22;55106;51.438;-0.098;2022-09-23T16:55:26;17.48;76.83
68276;DHT22;55106;51.438;-0.098;2022-09-23T16:57:52;17.46;76.92
68276;DHT22;55106;51.438;-0.098;2022-09-23T17:00:18;17.41;77.18
68276;DHT22;55106;51.438;-0.098;2022-09-23T17:03:03;17.37;77.58
68276;DHT22;55106;51.438;-0.098;2022-09-23T17:05:48;17.33;76.63
68276;DHT22;55106;51.438;-0.098;2022-09-23T17:08:15;17.24;76.70
68276;DHT22;55106;51.438;-0.098;2022-09-23T17:10:44;17.19;76.88
68276;DHT22;55106;51.438;-0.098;2022-09-23T17:13:17;17.13;77.21
68276;DHT22;55106;51.438;-0.098;2022-09-23T17:15:43;17.07;77.00
68276;DHT22;55106;51.438;-0.098;2022-09-23T17:18:08;17.00;77.43
68276;DHT22;55106;51.438;-0.098;2022-09-23T17:20:34;16.95;77.63
68276;DHT22;55106;51.438;-0.098;2022-09-23T17:23:00;16.90;77.28
68276;DHT22;55106;51.438;-0.098;2022-09-23T17:25:25;16.93;77.06
68276;DHT22;55106;51.438;-0.098;2022-09-23T17:27:51;16.86;77.28
68276;DHT22;55106;51.438;-0.098;2022-09-23T17:30:17;16.79;77.69
68276;DHT22;55106;51.438;-0.098;2022-09-23T17:32:43;16.80;77.60
68276;DHT22;55106;51.438;-0.098;2022-09-23T17:35:09;16.72;78.63
68276;DHT22;55106;51.438;-0.098;2022-09-23T17:37:35;16.64;78.30
68276;DHT22;55106;51.438;-0.098;2022-09-23T17:40:01;16.59;78.51
68276;DHT22;55106;51.438;-0.098;2022-09-23T17:42:27;16.59;78.55
68276;DHT22;55106;51.438;-0.098;2022-09-23T17:44:52;16.54;78.49
68276;DHT22;55106;51.438;-0.098;2022-09-23T17:47:21;16.51;78.52
68276;DHT22;55106;51.438;-0.098;2022-09-23T17:49:47;16.45;78.47
68276;DHT22;55106;51.438;-0.098;2022-09-23T17:52:14;16.45;78.60
68276;DHT22;55106;51.438;-0.098;2022-09-23T17:54:39;16.42;78.54
68276;DHT22;55106;51.438;-0.098;2022-09-23T17:57:04;16.41;78.52
68276;DHT22;55106;51.438;-0.098;2022-09-23T17:59:30;16.38;78.70
68276;DHT22;55106;51.438;-0.098;2022-09-23T18:01:55;16.35;79.21
68276;DHT22;55106;51.438;-0.098;2022-09-23T18:04:21;16.42;78.15
68276;DHT22;55106;51.438;-0.098;2022-09-23T18:06:46;16.44;78.31
68276;DHT22;55106;51.438;-0.098;2022-09-23T18:09:12;16.42;78.46
68276;DHT22;55106;51.438;-0.098;2022-09-23T18:11:42;16.47;77.82
68276;DHT22;55106;51.438;-0.098;2022-09-23T18:14:13;16.50;77.42
68276;DHT22;55106;51.438;-0.098;2022-09-23T18:16:43;16.48;77.21
68276;DHT22;55106;51.438;-0.098;2022-09-23T18:19:11;16.47;77.06